Time;durP1;ratioP1;P1;durP2;ratioP2;P2;SDS_P1;SDS_P2;PMS_P1;PMS_P2;Temp;Humidity;BMP_temperature;BMP_pressure;BME280_temperature;BME280_humidity;BME280_pressure;Samples;Min_cycle;Max_cycle;Signal;HPM_P1;HPM_P2
2023/10/13 00:00:30;;;;;;;15.37;13.97;;;;;;;11.33;92.97;93296.75;5068602;28;20195;-77
2023/10/13 00:03:00;;;;;;;13.87;12.83;;;;;;;11.25;93.26;93289.44;5066365;28;20266;-76
2023/10/13 00:05:32;;;;;;;12.73;11.83;;;;;;;11.49;92.18;93284.41;5062445;28;20187;-77
2023/10/13 00:08:03;;;;;;;13.80;12.70;;;;;;;11.43;92.04;93288.06;5066993;28;20243;-77
2023/10/13 00:10:29;;;;;;;13.53;12.43;;;;;;;11.38;92.59;93290.72;5049380;28;20206;-74
2023/10/13 00:13:05;;;;;;;14.17;12.73;;;;;;;11.38;92.36;93286.25;5068334;28;20181;-76
2023/10/13 00:15:38;;;;;;;13.40;12.30;;;;;;;11.35;92.31;93279.75;5068353;28;20170;-76
2023/10/13 00:18:12;;;;;;;14.47;13.27;;;;;;;11.19;92.72;93286.06;5072380;28;20254;-77
2023/10/13 00:20:47;;;;;;;14.17;12.77;;;;;;;11.26;93.15;93281.34;5062311;28;20262;-77
2023/10/13 00:23:13;;;;;;;12.97;11.97;;;;;;;11.29;92.78;93275.59;5071643;28;20220;-77
2023/10/13 00:25:49;;;;;;;14.47;13.03;;;;;;;11.28;93.52;93278.47;5072678;28;20186;-77
2023/10/13 00:28:23;;;;;;;14.73;13.60;;;;;;;11.32;92.98;93279.47;5071713;28;20225;-77
2023/10/13 00:30:53;;;;;;;14.80;13.40;;;;;;;11.25;93.27;93281.59;5064871;28;20213;-77
2023/10/13 00:33:22;;;;;;;14.37;13.07;;;;;;;11.31;93.28;93283.91;5071282;28;20211;-77
2023/10/13 00:35:51;;;;;;;14.00;12.80;;;;;;;11.34;92.90;93282.63;5071031;28;20186;-76
2023/10/13 00:38:18;;;;;;;14.30;13.07;;;;;;;11.27;93.07;93271.66;5071360;28;20223;-76
2023/10/13 00:40:51;;;;;;;16.60;13.57;;;;;;;11.15;93.79;93279.81;5071186;28;20253;-77
2023/10/13 00:45:55;;;;;;;13.43;12.33;;;;;;;11.21;93.07;93286.56;5070789;28;20217;-77
2023/10/13 00:48:33;;;;;;;14.73;13.40;;;;;;;11.18;93.29;93281.88;5071185;28;20215;-77
2023/10/13 00:51:02;;;;;;;13.33;12.27;;;;;;;11.23;93.32;93287.09;5067622;28;20250;-77
2023/10/13 00:53:33;;;;;;;15.27;14.17;;;;;;;11.18;93.31;93292.34;5070663;28;20283;-76
2023/10/13 00:56:08;;;;;;;14.60;13.57;;;;;;;11.13;93.47;93299.38;5073622;28;20207;-77
2023/10/13 00:58:39;;;;;;;14.00;12.97;;;;;;;11.18;93.34;93288.94;5071479;28;20247;-77
2023/10/13 01:01:29;;;;;;;14.40;13.20;;;;;;;11.10;93.92;93295.47;5071937;28;20180;-75
2023/10/13 01:03:55;;;;;;;14.73;13.33;;;;;;;11.10;93.20;93292.88;5069622;28;20277;-78
2023/10/13 01:06:25;;;;;;;14.60;13.20;;;;;;;11.01;93.77;93291.06;5071718;28;20219;-85
2023/10/13 01:08:59;;;;;;;15.40;13.97;;;;;;;10.93;93.69;93287.16;5053526;28;20221;-83
2023/10/13 01:11:27;;;;;;;13.37;12.27;;;;;;;10.88;94.59;93284.53;5066900;28;20204;-84
2023/10/13 01:13:53;;;;;;;14.40;13.20;;;;;;;11.01;94.22;93288.44;5066571;28;20224;-86
2023/10/13 01:16:26;;;;;;;15.07;13.63;;;;;;;11.02;93.73;93290.78;5074412;28;20837;-78
2023/10/13 01:18:52;;;;;;;14.20;13.13;;;;;;;10.87;95.42;93283.00;5055009;28;20229;-83
2023/10/13 01:21:20;;;;;;;14.00;12.80;;;;;;;10.86;95.18;93291.09;5059079;28;20171;-82
2023/10/13 01:23:47;;;;;;;15.03;13.53;;;;;;;10.86;94.05;93285.88;5077265;28;20227;-82
2023/10/13 01:26:17;;;;;;;14.10;12.97;;;;;;;10.76;94.26;93285.84;5070693;28;20200;-81
2023/10/13 01:28:48;;;;;;;14.97;13.63;;;;;;;10.83;94.65;93295.00;5071647;28;20219;-84
2023/10/13 01:31:24;;;;;;;14.23;12.97;;;;;;;10.76;94.54;93291.09;5061061;28;20202;-83
2023/10/13 01:33:53;;;;;;;12.93;11.73;;;;;;;10.78;94.13;93299.44;5055006;28;20238;-83
2023/10/13 01:36:19;;;;;;;14.57;13.37;;;;;;;10.77;94.40;93295.28;5058016;28;20236;-82
2023/10/13 01:38:46;;;;;;;12.90;11.83;;;;;;;10.75;94.36;93295.53;5061448;28;20233;-81
2023/10/13 01:41:12;;;;;;;13.67;12.70;;;;;;;10.67;95.84;93290.03;5072787;28;20247;-82
2023/10/13 01:43:38;;;;;;;12.87;11.87;;;;;;;10.67;95.74;93287.44;5060437;28;20213;-82
2023/10/13 01:46:03;;;;;;;13.83;12.53;;;;;;;10.70;95.06;93287.69;5065673;28;20226;-82
2023/10/13 01:48:32;;;;;;;13.83;12.93;;;;;;;10.70;95.34;93300.75;5069236;28;20223;-82
2023/10/13 01:51:00;;;;;;;14.50;13.30;;;;;;;10.67;94.91;93305.72;5060854;28;20215;-83
2023/10/13 01:53:28;;;;;;;14.00;12.73;;;;;;;10.66;94.60;93293.72;5055773;28;20215;-83
2023/10/13 01:55:57;;;;;;;14.57;13.13;;;;;;;10.67;94.71;93309.13;5037798;28;20191;-83
2023/10/13 01:58:23;;;;;;;17.43;14.17;;;;;;;10.71;94.32;93299.72;5053142;28;20238;-82
2023/10/13 02:00:49;;;;;;;14.33;12.70;;;;;;;10.77;93.81;93301.25;5049287;28;20237;-81
2023/10/13 02:03:15;;;;;;;14.03;12.83;;;;;;;10.73;94.81;93299.44;5046302;28;20233;-83
2023/10/13 02:05:48;;;;;;;16.93;13.43;;;;;;;10.72;95.14;93290.81;5046875;28;20237;-82
2023/10/13 02:08:24;;;;;;;14.00;12.87;;;;;;;10.66;95.16;93281.41;5050284;28;20241;-83
2023/10/13 02:10:54;;;;;;;13.37;12.17;;;;;;;10.58;95.30;93281.19;5049380;28;20221;-83
2023/10/13 02:13:22;;;;;;;13.03;12.00;;;;;;;10.58;95.00;93276.75;5043963;28;20233;-82
2023/10/13 02:15:48;;;;;;;14.90;13.60;;;;;;;10.64;94.97;93280.91;5049771;28;20205;-82
2023/10/13 02:18:25;;;;;;;13.70;12.50;;;;;;;10.69;94.64;93274.91;5049697;28;20238;-82
2023/10/13 02:20:54;;;;;;;14.70;13.23;;;;;;;10.57;94.47;93269.94;5048078;28;20185;-82
2023/10/13 02:23:30;;;;;;;14.23;12.37;;;;;;;10.57;94.42;93276.97;5038317;28;20239;-83
2023/10/13 02:26:15;;;;;;;13.27;12.23;;;;;;;10.54;94.46;93282.72;5031300;28;20190;-82
2023/10/13 02:28:40;;;;;;;13.23;12.03;;;;;;;10.57;94.24;93283.00;5049260;28;20211;-83
2023/10/13 02:31:06;;;;;;;14.17;12.97;;;;;;;10.76;94.40;93284.03;5045625;28;20566;-82
2023/10/13 02:33:33;;;;;;;12.70;11.80;;;;;;;10.66;94.71;93281.41;5047695;28;20238;-83
2023/10/13 02:36:03;;;;;;;14.40;13.03;;;;;;;10.48;95.02;93271.50;5039605;28;20194;-82
2023/10/13 02:41:05;;;;;;;15.20;13.63;;;;;;;10.51;95.78;93278.81;5049990;28;20225;-79
2023/10/13 02:43:33;;;;;;;13.83;12.70;;;;;;;10.54;95.55;93288.75;5044949;28;20246;-83
2023/10/13 02:45:59;;;;;;;13.70;12.47;;;;;;;10.46;95.13;93285.88;5043496;28;20210;-84
2023/10/13 02:48:26;;;;;;;15.03;13.63;;;;;;;10.53;95.39;93279.34;5047232;28;20285;-84
2023/10/13 02:51:06;;;;;;;13.83;12.73;;;;;;;10.53;95.07;93279.34;5048147;28;20217;-85
2023/10/13 02:53:32;;;;;;;14.63;13.40;;;;;;;10.42;95.25;93285.63;5048494;28;20236;-84
2023/10/13 02:56:04;;;;;;;14.27;12.80;;;;;;;10.41;95.11;93289.25;5050037;28;20206;-84
2023/10/13 02:58:38;;;;;;;18.57;12.53;;;;;;;10.38;94.39;93283.78;5047323;28;20250;-84
2023/10/13 03:01:16;;;;;;;13.67;12.27;;;;;;;10.50;94.61;93297.34;5049923;28;20203;-84
2023/10/13 03:03:43;;;;;;;14.47;13.20;;;;;;;10.38;94.51;93284.56;5042931;28;20231;-85
2023/10/13 03:06:11;;;;;;;15.47;12.37;;;;;;;10.49;95.21;93303.63;5040813;28;20186;-84
2023/10/13 03:08:37;;;;;;;14.70;13.33;;;;;;;10.38;95.73;93299.44;5034327;28;20252;-84
2023/10/13 03:11:05;;;;;;;13.77;12.57;;;;;;;10.39;95.25;93296.56;5048932;28;20228;-84
2023/10/13 03:13:33;;;;;;;15.00;13.40;;;;;;;10.32;95.35;93296.03;5049023;28;20233;-79
2023/10/13 03:15:59;;;;;;;14.43;13.03;;;;;;;10.42;95.83;93298.66;5038081;28;20187;-83
2023/10/13 03:18:24;;;;;;;13.67;12.50;;;;;;;10.40;95.36;93292.91;5048448;28;20222;-85
2023/10/13 03:20:51;;;;;;;15.27;12.97;;;;;;;10.41;95.59;93293.72;5043293;28;20221;-82
2023/10/13 03:23:16;;;;;;;14.83;13.33;;;;;;;10.36;95.60;93299.72;5043117;28;20240;-83
2023/10/13 03:25:49;;;;;;;15.70;13.90;;;;;;;10.29;95.62;93312.22;5037612;28;20199;-83
2023/10/13 03:28:16;;;;;;;14.93;13.23;;;;;;;10.21;96.05;93304.88;5048921;28;20302;-84
2023/10/13 03:30:42;;;;;;;17.20;14.20;;;;;;;10.40;95.70;93313.78;5049247;28;20223;-85
2023/10/13 03:33:11;;;;;;;14.80;13.60;;;;;;;10.27;95.42;93301.28;5048895;28;20225;-80
2023/10/13 03:35:38;;;;;;;16.27;13.63;;;;;;;10.16;95.65;93297.06;5043196;28;20180;-84
2023/10/13 03:38:11;;;;;;;17.13;13.93;;;;;;;10.23;95.83;93302.81;5044089;28;20222;-84
2023/10/13 03:40:37;;;;;;;17.00;13.80;;;;;;;10.34;96.02;93299.19;5043063;28;20181;-84
2023/10/13 03:43:12;;;;;;;16.30;14.63;;;;;;;10.18;96.17;93294.22;5048788;28;20321;-78
2023/10/13 03:45:47;;;;;;;14.87;13.37;;;;;;;10.24;96.21;93291.31;5046162;28;20217;-84
2023/10/13 03:51:10;;;;;;;17.03;14.47;;;;;;;10.25;95.29;93266.81;5037864;28;20244;-80
2023/10/13 03:53:55;;;;;;;15.83;13.37;;;;;;;10.30;95.55;93272.03;5048585;28;20215;-77
2023/10/13 03:56:27;;;;;;;15.83;14.40;;;;;;;10.21;96.03;93272.81;5046140;28;20214;-83
2023/10/13 03:59:06;;;;;;;14.63;13.33;;;;;;;10.17;96.38;93267.31;5045578;28;20214;-84
2023/10/13 04:01:45;;;;;;;15.30;13.73;;;;;;;10.18;97.13;93262.91;5045764;28;20173;-84
2023/10/13 04:04:12;;;;;;;15.83;14.33;;;;;;;10.22;96.91;93259.50;5047654;28;20214;-84
2023/10/13 04:17:14;;;;;;;14.60;13.17;;;;;;;10.11;97.18;93252.72;5048197;28;20204;-79
2023/10/13 04:36:21;;;;;;;15.43;13.87;;;;;;;10.35;93.24;93279.84;5065051;28;20234;-78
2023/10/13 04:38:59;;;;;;;18.23;13.23;;;;;;;10.33;94.34;93274.13;5061914;28;20253;-81
2023/10/13 04:41:31;;;;;;;19.60;13.73;;;;;;;10.26;94.76;93281.41;5062252;28;20253;-74
2023/10/13 05:46:20;;;;;;;18.63;16.57;;;;;;;11.41;91.83;93361.53;5043782;28;20248;-77
2023/10/13 06:29:33;;;;;;;21.50;18.17;;;;;;;12.71;86.67;93386.44;5034858;28;20217;-78
2023/10/13 06:32:01;;;;;;;22.10;17.37;;;;;;;13.03;85.52;93402.47;5043530;28;20226;-78
2023/10/13 06:34:44;;;;;;;19.53;16.77;;;;;;;12.90;85.57;93397.81;5041790;28;20216;-76
2023/10/13 06:37:23;;;;;;;26.27;17.93;;;;;;;13.12;85.69;93406.06;5039365;28;20203;-76
2023/10/13 06:39:59;;;;;;;27.23;18.23;;;;;;;12.83;86.28;93352.78;5049378;28;20217;-75
2023/10/13 06:42:28;;;;;;;29.13;19.17;;;;;;;13.38;85.00;93410.06;5049139;28;20209;-78
2023/10/13 06:44:54;;;;;;;22.77;19.17;;;;;;;13.58;83.56;93412.50;5042198;28;20228;-76
2023/10/13 06:47:21;;;;;;;26.03;19.37;;;;;;;13.62;82.69;93418.75;5045318;28;20186;-77
2023/10/13 06:49:48;;;;;;;23.60;18.57;;;;;;;13.45;84.40;93413.13;5047443;28;20229;-76
2023/10/13 06:52:15;;;;;;;21.87;18.97;;;;;;;13.49;84.58;93403.69;5036900;28;20214;-76
2023/10/13 06:54:42;;;;;;;27.30;18.83;;;;;;;13.68;83.67;93406.38;5047001;28;20222;-76
2023/10/13 06:57:14;;;;;;;28.93;20.43;;;;;;;13.71;83.92;93401.34;5045859;28;20216;-74
2023/10/13 06:59:42;;;;;;;32.90;19.53;;;;;;;14.03;83.08;93398.91;5037422;28;20229;-75
2023/10/13 07:02:09;;;;;;;34.03;20.80;;;;;;;14.13;82.33;93401.41;5048644;28;20197;-75
2023/10/13 07:04:39;;;;;;;28.17;19.83;;;;;;;14.16;82.49;93392.97;5046161;28;20241;-75
2023/10/13 07:07:10;;;;;;;26.20;19.63;;;;;;;14.05;83.05;93396.81;5042936;28;20253;-74
2023/10/13 07:12:04;;;;;;;30.37;19.13;;;;;;;14.82;79.48;93394.78;5048596;28;20181;-81
2023/10/13 07:14:33;;;;;;;22.67;20.13;;;;;;;14.36;82.97;93384.91;5047820;28;20244;-81
2023/10/13 07:17:04;;;;;;;30.30;20.97;;;;;;;14.50;81.93;93382.34;5044390;28;20190;-73
2023/10/13 07:19:31;;;;;;;32.03;19.57;;;;;;;15.01;79.01;93385.81;5039421;28;20240;-81
2023/10/13 07:22:18;;;;;;;21.13;18.07;;;;;;;15.25;78.25;93386.47;5044024;28;20271;-78
2023/10/13 07:24:48;;;;;;;25.40;18.87;;;;;;;15.03;78.96;93386.31;5041862;28;20238;-81
2023/10/13 07:27:22;;;;;;;24.63;18.33;;;;;;;15.31;77.74;93395.88;5040928;28;20179;-82
2023/10/13 07:29:55;;;;;;;33.23;18.53;;;;;;;15.42;77.41;93401.78;5043525;28;20209;-82
2023/10/13 07:32:25;;;;;;;26.87;18.90;;;;;;;15.28;77.41;93414.88;5029752;28;20259;-81
2023/10/13 07:34:55;;;;;;;30.37;19.03;;;;;;;15.68;75.49;93410.81;5033827;28;20221;-82
2023/10/13 07:37:25;;;;;;;37.50;18.57;;;;;;;15.92;74.71;93416.72;5040783;28;20189;-81
2023/10/13 07:39:50;;;;;;;36.57;18.40;;;;;;;15.98;74.38;93407.63;5042390;28;20218;-81
2023/10/13 07:42:19;;;;;;;22.63;18.40;;;;;;;15.88;74.66;93410.44;5040540;28;20274;-81
2023/10/13 07:44:48;;;;;;;26.10;18.53;;;;;;;16.06;74.28;93409.59;5045886;28;20242;-78
2023/10/13 07:47:14;;;;;;;19.60;17.50;;;;;;;16.13;74.24;93394.16;5047321;28;20246;-80
2023/10/13 07:49:40;;;;;;;24.73;18.20;;;;;;;16.49;73.46;93394.28;5039003;28;20296;-82
2023/10/13 07:54:49;;;;;;;31.00;17.87;;;;;;;16.69;73.65;93394.63;5043302;28;20257;-82
2023/10/13 07:57:17;;;;;;;30.27;17.80;;;;;;;17.04;71.40;93393.84;5042533;28;20192;-83
2023/10/13 07:59:52;;;;;;;23.20;16.73;;;;;;;16.95;72.14;93395.63;5046510;28;20229;-82
2023/10/13 08:05:04;;;;;;;30.53;17.13;;;;;;;16.65;72.88;93396.31;5047425;28;20282;-83
2023/10/13 08:07:31;;;;;;;24.80;16.97;;;;;;;16.67;72.54;93394.16;5048538;28;20182;-84
2023/10/13 08:09:59;;;;;;;28.60;16.13;;;;;;;16.96;71.51;93399.06;5040865;28;20245;-83
2023/10/13 08:12:24;;;;;;;23.00;17.37;;;;;;;17.21;70.63;93398.50;5046345;28;20178;-83
2023/10/13 08:15:09;;;;;;;33.63;17.60;;;;;;;17.28;70.86;93401.47;5047457;28;20306;-83
2023/10/13 08:17:34;;;;;;;32.10;17.10;;;;;;;17.63;69.88;93396.16;5042079;28;20184;-82
2023/10/13 08:20:11;;;;;;;24.83;17.13;;;;;;;18.17;66.11;93402.16;5047986;28;20222;-81
2023/10/13 08:22:38;;;;;;;26.73;17.87;;;;;;;18.05;66.60;93394.03;5047806;28;20186;-71
2023/10/13 08:30:52;;;;;;;28.07;16.67;;;;;;;18.43;65.09;93416.28;5044673;28;20224;-83
2023/10/13 08:33:18;;;;;;;26.43;16.30;;;;;;;17.70;66.99;93416.09;5036724;28;20223;-84
2023/10/13 08:35:54;;;;;;;27.00;17.60;;;;;;;17.64;67.16;93423.34;5043529;28;20194;-79
2023/10/13 08:38:28;;;;;;;29.60;18.20;;;;;;;17.76;66.03;93433.38;5044609;28;20281;-85
2023/10/13 08:43:45;;;;;;;28.90;17.27;;;;;;;18.25;64.12;93418.06;5049509;28;20244;-85
2023/10/13 08:46:24;;;;;;;25.60;15.93;;;;;;;18.60;63.07;93405.78;5048437;28;20229;-86
2023/10/13 08:49:04;;;;;;;23.13;16.47;;;;;;;18.56;62.94;93402.16;5052554;28;20237;-85
2023/10/13 08:51:43;;;;;;;21.20;16.60;;;;;;;18.93;62.36;93406.91;5051476;28;20211;-85
2023/10/13 08:54:19;;;;;;;34.73;16.50;;;;;;;18.86;63.24;93409.25;5051466;28;20217;-84
2023/10/13 08:56:54;;;;;;;23.00;17.30;;;;;;;18.97;62.73;93408.63;5050879;28;20180;-83
2023/10/13 08:59:33;;;;;;;19.13;15.67;;;;;;;18.74;64.78;93399.25;5048123;28;20216;-85
2023/10/13 09:02:15;;;;;;;31.17;17.93;;;;;;;18.92;62.78;93415.94;5044563;28;20186;-86
2023/10/13 09:04:44;;;;;;;24.00;16.40;;;;;;;18.79;63.77;93416.84;5039861;28;20226;-85
2023/10/13 09:07:15;;;;;;;25.23;16.00;;;;;;;19.15;62.00;93410.19;5047062;28;20195;-85
2023/10/13 09:12:12;;;;;;;29.43;15.73;;;;;;;19.49;61.09;93413.94;5050431;28;20192;-84
2023/10/13 09:14:44;;;;;;;30.63;16.63;;;;;;;19.18;61.23;93408.78;5048385;28;20232;-87
2023/10/13 09:23:07;;;;;;;24.03;16.47;;;;;;;19.66;59.31;93421.91;5048545;28;20222;-85
2023/10/13 09:25:53;;;;;;;19.93;16.17;;;;;;;19.71;57.11;93411.09;5051731;28;20186;-85
2023/10/13 09:28:21;;;;;;;23.93;17.40;;;;;;;19.88;56.59;93411.06;5048379;28;20231;-85
2023/10/13 09:30:49;;;;;;;17.73;15.53;;;;;;;19.96;56.95;93413.72;5049150;28;20217;-82
2023/10/13 09:33:28;;;;;;;36.33;17.93;;;;;;;20.33;55.16;93410.34;5048238;28;20224;-87
2023/10/13 09:35:54;;;;;;;23.67;16.63;;;;;;;20.60;54.84;93406.47;5051136;28;20178;-77
2023/10/13 09:38:20;;;;;;;20.03;14.73;;;;;;;20.83;50.47;93391.03;5050489;28;20346;-79
2023/10/13 09:40:49;;;;;;;18.37;15.53;;;;;;;20.96;52.06;93398.78;5043417;28;20177;-77
2023/10/13 09:43:19;;;;;;;17.15;14.85;;;;;;;21.12;51.17;93402.41;5049195;28;20231;-77
2023/10/13 09:46:02;;;;;;;19.35;16.08;;;;;;;21.22;50.29;93391.41;5038269;28;20293;-77
2023/10/13 09:48:33;;;;;;;23.92;14.77;;;;;;;21.46;48.11;93391.53;5047264;28;20229;-78
2023/10/13 09:51:08;;;;;;;18.23;13.43;;;;;;;21.53;47.10;93396.28;5051081;28;20226;-84
2023/10/13 09:53:37;;;;;;;24.27;15.83;;;;;;;21.29;47.44;93386.34;5050263;28;20899;-78
2023/10/13 09:56:12;;;;;;;20.48;13.65;;;;;;;21.20;48.29;93393.59;5050552;28;20190;-78
2023/10/13 09:59:08;;;;;;;18.38;13.40;;;;;;;21.35;48.09;93390.38;5038216;28;20224;-78
2023/10/13 10:01:37;;;;;;;19.35;13.18;;;;;;;21.13;49.17;93392.56;5047692;28;20200;-78
2023/10/13 10:04:17;;;;;;;20.90;14.25;;;;;;;21.22;49.22;93377.34;5050052;28;20288;-80
2023/10/13 10:07:00;;;;;;;18.45;13.88;;;;;;;21.28;50.44;93386.66;5050057;28;20219;-78
2023/10/13 10:09:37;;;;;;;24.95;14.55;;;;;;;21.32;49.09;93388.38;5042922;28;20280;-77
2023/10/13 10:12:21;;;;;;;20.17;14.07;;;;;;;21.41;48.28;93385.63;5039783;28;20216;-78
2023/10/13 10:18:19;;;;;;;14.85;13.20;;;;;;;21.37;48.49;93379.41;5049400;28;20226;-88
2023/10/13 10:20:47;;;;;;;15.00;13.50;;;;;;;21.44;48.84;93377.00;5037389;28;20244;-76
2023/10/13 10:23:27;;;;;;;18.40;10.75;;;;;;;21.43;44.13;93362.16;5045807;28;20228;-80
2023/10/13 10:26:04;;;;;;;12.52;9.30;;;;;;;21.67;43.72;93372.88;5047711;28;20747;-80
2023/10/13 10:28:35;;;;;;;9.00;8.30;;;;;;;21.66;41.42;93369.44;5047904;28;20243;-75
2023/10/13 10:31:14;;;;;;;8.60;7.88;;;;;;;21.79;41.90;93367.63;5048310;28;20220;-77
2023/10/13 10:33:39;;;;;;;8.55;7.95;;;;;;;21.65;40.51;93359.16;5042632;28;20310;-78
2023/10/13 10:36:05;;;;;;;8.73;8.13;;;;;;;21.59;41.01;93368.41;5050559;28;20197;-75
2023/10/13 10:41:05;;;;;;;9.35;8.52;;;;;;;22.16;40.33;93362.03;5049594;28;20181;-81
2023/10/13 10:43:42;;;;;;;10.40;9.32;;;;;;;22.17;40.19;93368.13;5038755;28;20223;-82
2023/10/13 10:46:15;;;;;;;9.73;8.90;;;;;;;22.33;40.47;93366.38;5049497;28;20248;-78
2023/10/13 10:48:44;;;;;;;10.02;9.00;;;;;;;22.37;40.46;93372.59;5049255;28;20223;-76
2023/10/13 10:51:31;;;;;;;11.45;9.25;;;;;;;22.64;39.18;93366.63;5049017;28;20212;-78
2023/10/13 10:53:57;;;;;;;12.75;9.10;;;;;;;22.48;39.41;93376.34;5042573;28;20237;-77
2023/10/13 10:56:36;;;;;;;9.70;9.00;;;;;;;22.52;40.17;93368.53;5048455;28;20200;-78
2023/10/13 10:59:04;;;;;;;10.75;8.60;;;;;;;22.31;40.43;93365.94;5043648;28;20262;-85
2023/10/13 11:01:33;;;;;;;10.45;8.65;;;;;;;22.46;39.58;93372.50;5049048;28;20196;-83
2023/10/13 11:06:47;;;;;;;10.52;9.32;;;;;;;22.83;38.90;93366.84;5038252;28;20218;-86
2023/10/13 11:09:31;;;;;;;9.50;8.60;;;;;;;22.68;39.65;93367.50;5048684;28;20247;-84
2023/10/13 11:15:00;;;;;;;8.75;7.93;;;;;;;22.87;38.40;93351.72;5030490;28;20231;-85
2023/10/13 11:20:43;;;;;;;14.88;8.88;;;;;;;22.28;39.02;93350.63;5037024;28;20225;-85
2023/10/13 11:23:13;;;;;;;9.18;8.40;;;;;;;22.50;38.51;93336.88;5036234;28;20220;-85
2023/10/13 11:25:38;;;;;;;9.25;8.35;;;;;;;22.44;40.12;93346.22;5037234;28;20195;-82
2023/10/13 11:28:10;;;;;;;8.90;8.30;;;;;;;22.42;40.03;93340.44;5043212;28;20244;-85
2023/10/13 11:33:05;;;;;;;17.25;8.90;;;;;;;22.31;39.35;93296.75;5048441;28;20227;-81
2023/10/13 11:38:27;;;;;;;11.70;8.90;;;;;;;22.83;39.00;93329.56;5042236;28;20248;-76
2023/10/13 11:43:34;;;;;;;9.27;8.40;;;;;;;22.63;38.76;93335.78;5045711;28;20213;-72
2023/10/13 11:48:36;;;;;;;10.48;8.25;;;;;;;22.92;37.89;93319.53;5047620;28;20232;-72
2023/10/13 11:51:11;;;;;;;9.77;8.90;;;;;;;23.11;37.19;93319.72;5046024;28;20225;-73
2023/10/13 11:53:42;;;;;;;8.68;8.02;;;;;;;22.99;37.35;93313.66;5046316;28;20296;-72
2023/10/13 11:56:09;;;;;;;9.98;9.05;;;;;;;23.08;36.43;93328.34;5046590;28;20181;-73
2023/10/13 11:58:39;;;;;;;9.75;8.93;;;;;;;22.76;37.79;93316.03;5047841;28;20300;-73
2023/10/13 12:11:47;;;;;;;9.90;9.00;;;;;;;22.71;38.15;93296.84;5046594;28;20221;-75
2023/10/13 12:14:17;;;;;;;10.20;8.90;;;;;;;22.74;37.26;93291.59;5044349;28;20258;-75
2023/10/13 12:16:50;;;;;;;9.25;8.55;;;;;;;22.79;36.59;93293.25;5051623;28;20264;-75
2023/10/13 12:19:26;;;;;;;10.35;9.27;;;;;;;22.70;37.09;93298.72;5042591;28;20266;-75
2023/10/13 12:21:56;;;;;;;9.23;8.38;;;;;;;22.66;36.41;93286.44;5039169;28;20198;-73
2023/10/13 12:24:30;;;;;;;11.00;9.27;;;;;;;22.55;36.87;93288.78;5044647;28;20229;-74
2023/10/13 12:26:57;;;;;;;9.93;9.10;;;;;;;22.83;37.22;93294.16;5045872;28;20224;-76
2023/10/13 12:29:28;;;;;;;9.88;9.05;;;;;;;22.94;36.41;93288.00;5051030;28;20247;-79
2023/10/13 12:32:14;;;;;;;10.75;9.82;;;;;;;23.03;36.42;93293.97;5051805;28;20258;-74
2023/10/13 12:34:56;;;;;;;11.88;9.63;;;;;;;23.12;36.19;93296.50;5046894;28;20223;-74
2023/10/13 12:51:19;;;;;;;9.88;8.60;;;;;;;22.91;35.37;93269.28;5046033;28;20212;-78
2023/10/13 12:53:48;;;;;;;11.07;10.00;;;;;;;23.09;35.55;93281.19;5050454;28;21186;-81
2023/10/13 12:56:15;;;;;;;10.30;8.77;;;;;;;23.16;35.31;93266.16;5039239;28;20339;-78
2023/10/13 12:58:41;;;;;;;12.43;9.30;;;;;;;23.24;35.00;93283.91;5045683;28;20220;-77
2023/10/13 13:01:06;;;;;;;9.93;8.98;;;;;;;23.34;35.30;93282.66;5050029;28;20219;-74
2023/10/13 13:03:32;;;;;;;10.07;9.13;;;;;;;23.27;35.39;93272.59;5037158;28;20219;-75
2023/10/13 13:05:58;;;;;;;9.63;8.77;;;;;;;23.08;35.49;93275.06;5047412;28;20200;-74
2023/10/13 13:08:24;;;;;;;11.52;9.05;;;;;;;22.94;35.69;93279.25;5040433;28;20221;-75
2023/10/13 13:10:51;;;;;;;9.98;9.13;;;;;;;23.07;36.24;93268.22;5050589;28;20242;-76
2023/10/13 13:13:24;;;;;;;12.05;9.55;;;;;;;23.31;35.28;93267.34;5042739;28;20299;-70
2023/10/13 13:15:49;;;;;;;11.70;8.77;;;;;;;23.26;36.02;93265.72;5050437;28;20280;-71
2023/10/13 13:18:15;;;;;;;9.82;8.98;;;;;;;23.16;35.87;93266.16;5046953;28;20233;-72
2023/10/13 13:20:52;;;;;;;10.55;9.65;;;;;;;23.10;35.94;93262.19;5045416;28;20225;-69
2023/10/13 13:23:17;;;;;;;11.25;10.30;;;;;;;22.94;36.76;93257.94;5046276;28;20236;-71
2023/10/13 13:25:45;;;;;;;11.43;9.75;;;;;;;23.06;36.70;93273.88;5040280;28;20307;-70
2023/10/13 13:28:11;;;;;;;10.57;9.63;;;;;;;23.00;37.43;93270.69;5045970;28;20227;-73
2023/10/13 13:30:37;;;;;;;10.35;9.48;;;;;;;23.09;37.33;93273.97;5048459;28;20217;-75
2023/10/13 13:33:10;;;;;;;10.82;9.73;;;;;;;22.82;37.36;93266.75;5045913;28;20335;-75
2023/10/13 13:35:36;;;;;;;12.85;9.30;;;;;;;23.00;37.38;93272.56;5041150;28;20178;-75
2023/10/13 13:40:58;;;;;;;13.63;10.15;;;;;;;22.97;37.71;93249.28;5040508;28;20197;-76
2023/10/13 13:43:50;;;;;;;9.95;9.18;;;;;;;23.22;36.83;93270.13;5050048;28;20225;-75
2023/10/13 13:46:24;;;;;;;11.30;10.23;;;;;;;23.10;38.61;93270.19;5050420;28;20224;-75
2023/10/13 13:49:00;;;;;;;10.85;9.95;;;;;;;23.09;36.60;93266.00;5049607;28;20223;-75
2023/10/13 13:51:27;;;;;;;17.35;9.95;;;;;;;23.00;36.90;93277.91;5048831;28;20200;-76
2023/10/13 13:53:54;;;;;;;10.93;9.93;;;;;;;22.96;38.38;93271.69;5043885;28;20233;-76
2023/10/13 13:56:19;;;;;;;10.70;9.90;;;;;;;22.92;37.62;93260.94;5050559;28;20184;-76
2023/10/13 13:58:52;;;;;;;11.68;9.07;;;;;;;22.73;38.95;93276.75;5050505;28;20247;-76
2023/10/13 14:01:21;;;;;;;10.23;9.43;;;;;;;22.50;39.53;93270.34;5044045;28;20196;-76
2023/10/13 14:03:50;;;;;;;10.18;9.30;;;;;;;22.42;40.68;93271.25;5036064;28;20230;-76
2023/10/13 14:06:28;;;;;;;10.70;9.52;;;;;;;22.38;41.32;93278.34;5046273;28;20188;-76
2023/10/13 14:08:56;;;;;;;12.70;9.70;;;;;;;22.23;41.90;93276.34;5049722;28;20602;-76
2023/10/13 14:14:15;;;;;;;9.73;8.75;;;;;;;21.69;42.90;93269.66;5049617;28;20265;-77
2023/10/13 14:16:44;;;;;;;11.07;8.90;;;;;;;21.65;43.85;93266.13;5044071;28;20192;-74
2023/10/13 14:19:29;;;;;;;9.80;8.95;;;;;;;21.55;43.54;93269.19;5041385;28;20753;-76
2023/10/13 14:21:55;;;;;;;10.80;9.75;;;;;;;21.48;43.92;93271.63;5046188;28;20181;-76
2023/10/13 14:24:27;;;;;;;14.82;9.13;;;;;;;21.20;44.42;93257.38;5041607;28;20222;-76
2023/10/13 14:26:56;;;;;;;10.18;9.20;;;;;;;21.06;45.64;93264.88;5050688;28;20195;-76
2023/10/13 14:29:26;;;;;;;10.23;8.88;;;;;;;20.82;46.33;93264.72;5049309;28;20217;-77
2023/10/13 14:31:51;;;;;;;10.27;9.38;;;;;;;20.62;47.82;93261.75;5050479;28;20340;-76
2023/10/13 14:34:17;;;;;;;9.95;8.93;;;;;;;20.36;49.05;93266.47;5041242;28;20265;-76
2023/10/13 14:36:48;;;;;;;11.27;10.05;;;;;;;20.24;49.66;93265.59;5045232;28;20237;-76
2023/10/13 14:39:14;;;;;;;11.10;9.55;;;;;;;20.00;50.05;93258.22;5041216;28;20210;-75
2023/10/13 14:41:39;;;;;;;10.70;9.63;;;;;;;19.82;50.62;93254.13;5045181;28;20195;-76
2023/10/13 14:44:05;;;;;;;16.48;9.50;;;;;;;19.78;51.29;93261.13;5043761;28;20223;-78
2023/10/13 14:46:31;;;;;;;10.93;9.37;;;;;;;19.70;50.98;93264.63;5049692;28;20217;-78
2023/10/13 14:48:57;;;;;;;18.70;9.20;;;;;;;19.66;51.16;93255.75;5047703;28;20225;-78
2023/10/13 14:51:25;;;;;;;10.13;8.90;;;;;;;19.50;51.64;93246.00;5046454;28;20236;-78
2023/10/13 14:53:55;;;;;;;11.27;9.50;;;;;;;19.41;51.95;93253.94;5049470;28;20313;-78
2023/10/13 14:56:25;;;;;;;11.38;10.38;;;;;;;19.32;51.93;93250.56;5047687;28;20189;-78
2023/10/13 14:58:50;;;;;;;10.67;9.63;;;;;;;19.23;52.77;93249.78;5046971;28;20240;-78
2023/10/13 15:01:26;;;;;;;10.13;9.37;;;;;;;19.17;52.85;93249.16;5046415;28;20267;-78
2023/10/13 15:03:55;;;;;;;13.90;10.33;;;;;;;19.08;53.29;93245.00;5040160;28;20208;-78
2023/10/13 15:06:28;;;;;;;14.30;11.60;;;;;;;19.09;53.97;93251.84;5048306;28;20228;-79
2023/10/13 15:08:55;;;;;;;10.47;9.67;;;;;;;19.03;53.73;93248.59;5045951;28;20223;-75
2023/10/13 15:11:26;;;;;;;12.30;10.30;;;;;;;18.98;53.25;93245.31;5041024;28;20209;-77
2023/10/13 15:13:52;;;;;;;13.63;10.17;;;;;;;18.89;53.27;93248.00;5042441;28;20271;-75